createdAt,value
2023-01-27T00:00:43.688Z,1.90
2023-01-27T00:01:45.420Z,1.90
2023-01-27T00:02:47.528Z,1.90
2023-01-27T00:03:49.270Z,1.90
2023-01-27T00:04:50.960Z,1.80
2023-01-27T00:05:52.585Z,1.80
2023-01-27T00:06:54.205Z,1.80
2023-01-27T00:07:58.853Z,1.80
2023-01-27T00:09:00.595Z,1.80
2023-01-27T00:10:02.379Z,1.80
2023-01-27T00:11:33.182Z,1.80
2023-01-27T00:12:53.181Z,1.80
2023-01-27T00:13:55.244Z,1.80
2023-01-27T00:14:56.880Z,1.80
2023-01-27T00:15:58.633Z,1.80
2023-01-27T00:17:00.319Z,1.70
2023-01-27T00:18:02.216Z,1.80
2023-01-27T00:19:03.863Z,1.70
2023-01-27T00:20:05.834Z,1.80
2023-01-27T00:21:26.357Z,1.70
2023-01-27T00:22:46.935Z,1.70
2023-01-27T00:24:07.380Z,1.70
2023-01-27T00:25:09.102Z,1.70
2023-01-27T00:26:15.464Z,1.60
2023-01-27T00:27:17.199Z,1.60
2023-01-27T00:28:23.148Z,1.60
2023-01-27T00:29:24.861Z,1.60
2023-01-27T00:30:26.875Z,1.60
2023-01-27T00:31:47.241Z,1.60
2023-01-27T00:33:07.719Z,1.60
2023-01-27T00:34:09.751Z,1.60
2023-01-27T00:35:12.222Z,1.60
2023-01-27T00:36:13.898Z,1.50
2023-01-27T00:37:15.880Z,1.50
2023-01-27T00:38:17.519Z,1.50
2023-01-27T00:39:19.162Z,1.50
2023-01-27T00:40:20.860Z,1.50
2023-01-27T00:41:23.212Z,1.40
2023-01-27T00:42:24.947Z,1.40
2023-01-27T00:43:26.573Z,1.40
2023-01-27T00:44:28.410Z,1.40
2023-01-27T00:45:48.963Z,1.40
2023-01-27T00:46:50.679Z,1.30
2023-01-27T00:47:52.948Z,1.30
2023-01-27T00:48:54.630Z,1.30
2023-01-27T00:49:56.333Z,1.30
2023-01-27T00:50:58.070Z,1.30
2023-01-27T00:51:59.717Z,1.30
2023-01-27T00:53:02.320Z,1.30
2023-01-27T00:54:05.212Z,1.30
2023-01-27T00:55:07.678Z,1.20
2023-01-27T00:56:09.759Z,1.20
2023-01-27T00:57:11.543Z,1.20
2023-01-27T00:58:13.405Z,1.20
2023-01-27T00:59:15.071Z,1.20
2023-01-27T01:00:17.291Z,1.20
2023-01-27T01:01:19.421Z,1.20
2023-01-27T01:02:21.265Z,1.20
2023-01-27T01:03:23.225Z,1.10
2023-01-27T01:04:25.332Z,1.20
2023-01-27T01:05:26.983Z,1.20
2023-01-27T01:06:28.786Z,1.20
2023-01-27T01:07:30.485Z,1.20
2023-01-27T01:08:32.859Z,1.20
2023-01-27T01:09:34.667Z,1.20
2023-01-27T01:10:38.109Z,1.20
2023-01-27T01:11:39.750Z,1.10
2023-01-27T01:12:41.828Z,1.20
2023-01-27T01:13:44.349Z,1.10
2023-01-27T01:14:46.049Z,1.10
2023-01-27T01:15:48.201Z,1.10
2023-01-27T01:16:49.816Z,1.10
2023-01-27T01:17:51.492Z,1.10
2023-01-27T01:18:53.436Z,1.10
2023-01-27T01:19:55.040Z,1.10
2023-01-27T01:20:56.816Z,1.10
2023-01-27T01:21:58.433Z,1.10
2023-01-27T01:23:00.100Z,1.10
2023-01-27T01:24:02.035Z,1.10
2023-01-27T01:25:04.835Z,1.10
2023-01-27T01:26:06.823Z,1.10
2023-01-27T01:27:08.481Z,1.10
2023-01-27T01:28:10.251Z,1.10
2023-01-27T01:29:11.894Z,1.10
2023-01-27T01:30:13.742Z,1.10
2023-01-27T01:31:17.541Z,1.10
2023-01-27T01:32:19.515Z,1.10
2023-01-27T01:33:21.271Z,1.10
2023-01-27T01:34:22.896Z,1.10
2023-01-27T01:35:25.196Z,1.10
2023-01-27T01:36:27.282Z,1.10
2023-01-27T01:37:28.899Z,1.10
2023-01-27T01:38:30.577Z,1.10
2023-01-27T01:39:32.283Z,1.10
2023-01-27T01:40:34.109Z,1.10
2023-01-27T01:41:35.723Z,1.10
2023-01-27T01:42:52.798Z,1.10
2023-01-27T01:43:54.474Z,1.10
2023-01-27T01:45:14.964Z,1.10
2023-01-27T01:46:17.164Z,1.10
2023-01-27T01:47:19.244Z,1.10
2023-01-27T01:48:20.898Z,1.10
2023-01-27T01:49:24.030Z,1.10
2023-01-27T01:50:26.063Z,1.10
2023-01-27T01:51:32.885Z,1.10
2023-01-27T01:52:34.536Z,1.10
2023-01-27T01:53:46.698Z,1.10
2023-01-27T01:54:52.092Z,1.10
2023-01-27T01:55:53.939Z,1.10
2023-01-27T01:56:57.352Z,1.10
2023-01-27T01:57:58.984Z,1.10
2023-01-27T01:59:03.480Z,1.10
2023-01-27T02:00:08.511Z,1.10
2023-01-27T02:01:10.935Z,1.10
2023-01-27T02:02:14.376Z,1.10
2023-01-27T02:03:16.273Z,1.10
2023-01-27T02:04:23.861Z,1.10
2023-01-27T02:05:27.699Z,1.20
2023-01-27T02:06:29.445Z,1.10
2023-01-27T02:07:34.837Z,1.10
2023-01-27T02:08:40.065Z,1.10
2023-01-27T02:09:41.894Z,1.10
2023-01-27T02:10:43.575Z,1.10
2023-01-27T02:11:45.259Z,1.10
2023-01-27T02:12:47.013Z,1.10
2023-01-27T02:13:48.813Z,1.10
2023-01-27T02:14:50.477Z,1.10
2023-01-27T02:15:54.083Z,1.10
2023-01-27T02:16:55.961Z,1.10
2023-01-27T02:17:58.937Z,1.10
2023-01-27T02:19:00.729Z,1.10
2023-01-27T02:20:05.755Z,1.10
2023-01-27T02:21:07.787Z,1.10
2023-01-27T02:22:11.459Z,1.10
2023-01-27T02:23:13.262Z,1.20
2023-01-27T02:24:14.936Z,1.10
2023-01-27T02:25:20.076Z,1.20
2023-01-27T02:26:23.551Z,1.20
2023-01-27T02:27:25.448Z,1.10
2023-01-27T02:28:28.874Z,1.10
2023-01-27T02:29:30.713Z,1.10
2023-01-27T02:30:33.080Z,1.10
2023-01-27T02:32:51.920Z,1.10
2023-01-27T02:33:54.635Z,1.10
2023-01-27T02:34:56.784Z,1.10
2023-01-27T02:36:03.661Z,1.10
2023-01-27T02:37:08.340Z,1.10
2023-01-27T02:38:11.547Z,1.10
2023-01-27T02:39:15.624Z,1.10
2023-01-27T02:40:17.744Z,1.10
2023-01-27T02:41:19.398Z,1.10
2023-01-27T02:42:21.203Z,1.10
2023-01-27T02:43:22.891Z,1.10
2023-01-27T02:44:24.551Z,1.10
2023-01-27T02:45:27.008Z,1.10
2023-01-27T02:46:28.884Z,1.10
2023-01-27T02:47:30.597Z,1.10
2023-01-27T02:48:32.364Z,1.10
2023-01-27T02:49:34.028Z,1.20
2023-01-27T02:50:35.683Z,1.10
2023-01-27T02:51:37.352Z,1.20
2023-01-27T02:52:38.964Z,1.10
2023-01-27T02:53:40.751Z,1.20
2023-01-27T02:54:42.509Z,1.20
2023-01-27T02:55:44.156Z,1.10
2023-01-27T02:56:45.797Z,1.10
2023-01-27T02:57:47.446Z,1.20
2023-01-27T02:58:49.224Z,1.10
2023-01-27T02:59:50.903Z,1.10
2023-01-27T03:00:52.584Z,1.10
2023-01-27T03:01:54.245Z,1.10
2023-01-27T03:02:55.859Z,1.20
2023-01-27T03:03:58.168Z,1.10
2023-01-27T03:05:00.339Z,1.20
2023-01-27T03:06:02.121Z,1.10
2023-01-27T03:07:03.765Z,1.10
2023-01-27T03:08:05.756Z,1.10
2023-01-27T03:09:07.496Z,1.10
2023-01-27T03:10:09.657Z,1.10
2023-01-27T03:11:11.807Z,1.10
2023-01-27T03:12:22.710Z,1.10
2023-01-27T03:13:24.785Z,1.10
2023-01-27T03:14:45.222Z,1.10
2023-01-27T03:16:05.566Z,1.10
2023-01-27T03:17:25.767Z,1.10
2023-01-27T03:18:27.590Z,1.00
2023-01-27T03:19:29.241Z,1.00
2023-01-27T03:20:31.130Z,1.00
2023-01-27T03:21:32.864Z,1.00
2023-01-27T03:22:34.865Z,1.00
2023-01-27T03:23:36.523Z,1.00
2023-01-27T03:24:39.654Z,1.00
2023-01-27T03:25:42.646Z,1.00
2023-01-27T03:26:44.357Z,1.00
2023-01-27T03:27:45.964Z,1.00
2023-01-27T03:29:07.570Z,1.00
2023-01-27T03:30:09.635Z,1.00
2023-01-27T03:31:19.540Z,1.00
2023-01-27T03:32:28.883Z,1.00
2023-01-27T03:33:30.919Z,1.00
2023-01-27T03:34:32.535Z,1.00
2023-01-27T03:35:38.997Z,1.00
2023-01-27T03:37:00.214Z,1.00
2023-01-27T03:38:20.619Z,1.00
2023-01-27T03:39:40.712Z,1.00
2023-01-27T03:41:01.409Z,1.00
2023-01-27T03:42:21.836Z,0.90
2023-01-27T03:43:41.977Z,0.90
2023-01-27T03:45:02.352Z,0.90
2023-01-27T03:46:19.160Z,0.90
2023-01-27T03:47:20.835Z,0.80
2023-01-27T03:48:22.981Z,0.90
2023-01-27T03:49:24.627Z,0.90
2023-01-27T03:50:37.243Z,0.90
2023-01-27T03:51:38.956Z,0.90
2023-01-27T03:52:40.715Z,0.90
2023-01-27T03:53:42.774Z,0.90
2023-01-27T03:54:44.482Z,0.90
2023-01-27T03:55:49.069Z,0.90
2023-01-27T03:56:50.711Z,0.90
2023-01-27T03:57:53.592Z,0.90
2023-01-27T03:58:55.220Z,0.90
2023-01-27T03:59:57.719Z,0.90
2023-01-27T04:01:03.645Z,0.90
2023-01-27T04:02:24.236Z,0.90
2023-01-27T04:03:46.227Z,0.90
2023-01-27T04:05:06.544Z,0.90
2023-01-27T04:06:28.490Z,0.90
2023-01-27T04:07:30.604Z,0.90
2023-01-27T04:08:32.467Z,0.90
2023-01-27T04:09:35.353Z,0.90
2023-01-27T04:10:37.021Z,0.80
2023-01-27T04:11:58.054Z,0.90
2023-01-27T04:12:59.664Z,0.90
2023-01-27T04:14:02.040Z,0.90
2023-01-27T04:15:04.012Z,0.90
2023-01-27T04:16:05.839Z,0.90
2023-01-27T04:17:10.879Z,0.90
2023-01-27T04:18:12.536Z,0.90
2023-01-27T04:19:14.607Z,0.90
2023-01-27T04:20:16.387Z,0.90
2023-01-27T04:21:18.053Z,0.90
2023-01-27T04:22:19.728Z,0.90
2023-01-27T04:23:21.533Z,0.90
2023-01-27T04:24:23.240Z,0.90
2023-01-27T04:25:24.877Z,0.90
2023-01-27T04:26:26.613Z,0.90
2023-01-27T04:27:28.295Z,0.90
2023-01-27T04:28:43.937Z,1.00
2023-01-27T04:29:46.109Z,1.00
2023-01-27T04:30:48.009Z,1.00
2023-01-27T04:31:49.939Z,1.00
2023-01-27T04:32:51.616Z,1.00
2023-01-27T04:33:53.483Z,1.00
2023-01-27T04:34:55.352Z,1.00
2023-01-27T04:35:57.034Z,1.00
2023-01-27T04:36:59.319Z,1.00
2023-01-27T04:38:01.016Z,1.10
2023-01-27T04:39:02.703Z,1.00
2023-01-27T04:40:04.593Z,1.10
2023-01-27T04:41:06.252Z,1.10
2023-01-27T04:42:08.466Z,1.10
2023-01-27T04:43:10.206Z,1.10
2023-01-27T04:44:12.419Z,1.10
2023-01-27T04:45:14.532Z,1.10
2023-01-27T04:46:16.396Z,1.10
2023-01-27T04:47:18.051Z,1.10
2023-01-27T04:48:19.731Z,1.10
2023-01-27T04:49:22.330Z,1.10
2023-01-27T04:50:23.999Z,1.20
2023-01-27T04:51:26.215Z,1.20
2023-01-27T04:52:27.878Z,1.20
2023-01-27T04:53:29.570Z,1.20
2023-01-27T04:54:31.271Z,1.20
2023-01-27T04:55:33.027Z,1.20
2023-01-27T04:56:36.014Z,1.20
2023-01-27T04:57:37.728Z,1.20
2023-01-27T04:58:39.402Z,1.20
2023-01-27T04:59:41.033Z,1.20
2023-01-27T05:00:42.684Z,1.20
2023-01-27T05:01:44.417Z,1.20
2023-01-27T05:02:46.143Z,1.30
2023-01-27T05:03:47.832Z,1.30
2023-01-27T05:04:49.543Z,1.20
2023-01-27T05:05:52.507Z,1.30
2023-01-27T05:06:54.271Z,1.20
2023-01-27T05:07:56.003Z,1.20
2023-01-27T05:08:57.693Z,1.30
2023-01-27T05:09:59.543Z,1.30
2023-01-27T05:11:01.162Z,1.30
2023-01-27T05:12:02.813Z,1.30
2023-01-27T05:13:04.583Z,1.30
2023-01-27T05:14:06.500Z,1.30
2023-01-27T05:15:08.797Z,1.30
2023-01-27T05:16:14.640Z,1.30
2023-01-27T05:17:16.323Z,1.30
2023-01-27T05:18:17.949Z,1.30
2023-01-27T05:19:19.584Z,1.30
2023-01-27T05:20:21.321Z,1.30
2023-01-27T05:21:24.365Z,1.20
2023-01-27T05:22:26.001Z,1.30
2023-01-27T05:23:36.671Z,1.20
2023-01-27T05:24:38.672Z,1.30
2023-01-27T05:25:46.484Z,1.20
2023-01-27T05:26:48.157Z,1.20
2023-01-27T05:27:49.788Z,1.20
2023-01-27T05:28:52.229Z,1.20
2023-01-27T05:29:53.933Z,1.20
2023-01-27T05:31:06.334Z,1.30
2023-01-27T05:32:08.135Z,1.30
2023-01-27T05:33:10.926Z,1.20
2023-01-27T05:34:12.567Z,1.30
2023-01-27T05:35:14.579Z,1.30
2023-01-27T05:36:17.637Z,1.30
2023-01-27T05:37:20.427Z,1.30
2023-01-27T05:38:22.041Z,1.30
2023-01-27T05:39:23.687Z,1.30
2023-01-27T05:40:25.364Z,1.30
2023-01-27T05:41:31.051Z,1.30
2023-01-27T05:42:32.684Z,1.30
2023-01-27T05:43:35.830Z,1.30
2023-01-27T05:44:37.528Z,1.30
2023-01-27T05:45:39.155Z,1.30
2023-01-27T05:46:41.385Z,1.30
2023-01-27T05:47:43.136Z,1.30
2023-01-27T05:48:46.127Z,1.30
2023-01-27T05:49:47.783Z,1.30
2023-01-27T05:50:56.242Z,1.30
2023-01-27T05:51:59.996Z,1.30
2023-01-27T05:53:01.770Z,1.30
2023-01-27T05:54:03.893Z,1.30
2023-01-27T05:55:05.946Z,1.30
2023-01-27T05:56:10.482Z,1.30
2023-01-27T05:57:12.133Z,1.30
2023-01-27T05:58:13.792Z,1.30
2023-01-27T05:59:15.691Z,1.40
2023-01-27T06:00:17.648Z,1.40
2023-01-27T06:01:20.443Z,1.40
2023-01-27T06:02:23.565Z,1.30
2023-01-27T06:03:25.364Z,1.30
2023-01-27T06:04:26.995Z,1.40
2023-01-27T06:05:29.012Z,1.30
2023-01-27T06:06:31.710Z,1.40
2023-01-27T06:07:33.364Z,1.40
2023-01-27T06:08:35.497Z,1.40
2023-01-27T06:09:38.848Z,1.40
2023-01-27T06:10:40.519Z,1.40
2023-01-27T06:11:42.228Z,1.40
2023-01-27T06:12:43.897Z,1.40
2023-01-27T06:13:46.320Z,1.40
2023-01-27T06:14:47.984Z,1.40
2023-01-27T06:15:49.980Z,1.40
2023-01-27T06:16:53.685Z,1.40
2023-01-27T06:17:55.375Z,1.40
2023-01-27T06:18:58.785Z,1.40
2023-01-27T06:20:00.591Z,1.40
2023-01-27T06:21:02.776Z,1.40
2023-01-27T06:22:04.482Z,1.40
2023-01-27T06:23:07.187Z,1.40
2023-01-27T06:24:08.929Z,1.40
2023-01-27T06:25:10.646Z,1.40
2023-01-27T06:26:13.980Z,1.40
2023-01-27T06:27:15.809Z,1.40
2023-01-27T06:28:30.106Z,1.40
2023-01-27T06:29:31.913Z,1.40
2023-01-27T06:30:34.169Z,1.40
2023-01-27T06:31:36.153Z,1.40
2023-01-27T06:32:38.025Z,1.40
2023-01-27T06:33:39.817Z,1.40
2023-01-27T06:34:41.431Z,1.40
2023-01-27T06:35:43.425Z,1.40
2023-01-27T06:36:45.096Z,1.40
2023-01-27T06:37:46.837Z,1.40
2023-01-27T06:38:49.054Z,1.40
2023-01-27T06:39:50.827Z,1.40
2023-01-27T06:40:52.463Z,1.40
2023-01-27T06:41:54.542Z,1.40
2023-01-27T06:42:56.442Z,1.40
2023-01-27T06:43:58.131Z,1.40
2023-01-27T06:44:59.817Z,1.40
2023-01-27T06:46:05.388Z,1.40
2023-01-27T06:47:07.545Z,1.40
2023-01-27T06:48:09.583Z,1.40
2023-01-27T06:49:11.315Z,1.30
2023-01-27T06:50:13.909Z,1.40
2023-01-27T06:51:15.902Z,1.40
2023-01-27T06:52:17.588Z,1.30
2023-01-27T06:53:19.335Z,1.40
2023-01-27T06:54:21.138Z,1.40
2023-01-27T06:55:24.364Z,1.30
2023-01-27T06:56:28.321Z,1.40
2023-01-27T06:57:30.090Z,1.30
2023-01-27T06:58:33.008Z,1.30
2023-01-27T06:59:34.683Z,1.30
2023-01-27T07:00:36.833Z,1.40
2023-01-27T07:01:38.449Z,1.30
2023-01-27T07:02:40.192Z,1.30
2023-01-27T07:03:43.687Z,1.40
2023-01-27T07:04:46.361Z,1.40
2023-01-27T07:05:48.024Z,1.30
2023-01-27T07:06:49.711Z,1.30
2023-01-27T07:07:51.416Z,1.30
2023-01-27T07:08:54.771Z,1.30
2023-01-27T07:09:57.095Z,1.40
2023-01-27T07:11:01.661Z,1.40
2023-01-27T07:12:03.339Z,1.40
2023-01-27T07:13:08.599Z,1.40
2023-01-27T07:14:10.710Z,1.40
2023-01-27T07:15:12.755Z,1.40
2023-01-27T07:16:14.844Z,1.30
2023-01-27T07:17:16.513Z,1.30
2023-01-27T07:18:19.791Z,1.40
2023-01-27T07:19:21.424Z,1.40
2023-01-27T07:20:23.538Z,1.40
2023-01-27T07:21:25.777Z,1.40
2023-01-27T07:22:27.579Z,1.30
2023-01-27T07:23:29.242Z,1.30
2023-01-27T07:24:31.687Z,1.30
2023-01-27T07:25:34.281Z,1.30
2023-01-27T07:26:35.958Z,1.40
2023-01-27T07:27:37.736Z,1.40
2023-01-27T07:28:39.525Z,1.40
2023-01-27T07:29:41.759Z,1.40
2023-01-27T07:30:44.120Z,1.40
2023-01-27T07:31:45.877Z,1.30
2023-01-27T07:32:47.737Z,1.40
2023-01-27T07:33:49.565Z,1.40
2023-01-27T07:34:51.211Z,1.40
2023-01-27T07:35:52.935Z,1.40
2023-01-27T07:36:54.540Z,1.40
2023-01-27T07:37:56.943Z,1.40
2023-01-27T07:38:58.616Z,1.40
2023-01-27T07:40:00.317Z,1.40
2023-01-27T07:41:04.008Z,1.40
2023-01-27T07:42:06.017Z,1.40
2023-01-27T07:43:07.689Z,1.40
2023-01-27T07:44:10.221Z,1.40
2023-01-27T07:45:11.889Z,1.40
2023-01-27T07:46:13.542Z,1.40
2023-01-27T07:47:15.330Z,1.40
2023-01-27T07:48:17.561Z,1.50
2023-01-27T07:49:19.339Z,1.50
2023-01-27T07:50:21.750Z,1.50
2023-01-27T07:51:23.396Z,1.50
2023-01-27T07:52:25.085Z,1.50
2023-01-27T07:53:26.801Z,1.50
2023-01-27T07:54:28.511Z,1.50
2023-01-27T07:55:30.416Z,1.50
2023-01-27T07:56:32.311Z,1.50
2023-01-27T07:57:34.287Z,1.50
2023-01-27T07:58:35.930Z,1.60
2023-01-27T07:59:37.792Z,1.60
2023-01-27T08:00:39.886Z,1.50
2023-01-27T08:01:41.956Z,1.60
2023-01-27T08:02:43.616Z,1.50
2023-01-27T08:03:45.264Z,1.60
2023-01-27T08:04:53.367Z,1.60
2023-01-27T08:05:55.394Z,1.60
2023-01-27T08:06:57.046Z,1.60
2023-01-27T08:07:59.277Z,1.60
2023-01-27T08:09:00.934Z,1.60
2023-01-27T08:10:02.649Z,1.60
2023-01-27T08:11:05.443Z,1.60
2023-01-27T08:12:07.086Z,1.60
2023-01-27T08:13:08.718Z,1.60
2023-01-27T08:14:11.420Z,1.60
2023-01-27T08:15:13.213Z,1.60
2023-01-27T08:16:15.540Z,1.70
2023-01-27T08:17:17.193Z,1.70
2023-01-27T08:18:18.893Z,1.70
2023-01-27T08:19:20.492Z,1.70
2023-01-27T08:20:23.039Z,1.70
2023-01-27T08:21:25.368Z,1.70
2023-01-27T08:22:28.976Z,1.70
2023-01-27T08:23:31.404Z,1.70
2023-01-27T08:24:33.435Z,1.70
2023-01-27T08:25:35.189Z,1.70
2023-01-27T08:26:37.264Z,1.70
2023-01-27T08:27:38.912Z,1.70
2023-01-27T08:28:41.246Z,1.70
2023-01-27T08:29:43.043Z,1.70
2023-01-27T08:30:45.103Z,1.80
2023-01-27T08:31:46.910Z,1.80
2023-01-27T08:32:49.032Z,1.80
2023-01-27T08:33:52.968Z,1.80
2023-01-27T08:34:55.499Z,1.80
2023-01-27T08:35:57.576Z,1.80
2023-01-27T08:36:59.808Z,1.80
2023-01-27T08:38:01.860Z,1.80
2023-01-27T08:39:03.630Z,1.90
2023-01-27T08:40:05.671Z,1.90
2023-01-27T08:41:09.101Z,1.80
2023-01-27T08:42:10.925Z,1.80
2023-01-27T08:43:13.221Z,1.90
2023-01-27T08:44:15.036Z,1.80
2023-01-27T08:45:17.177Z,1.80
2023-01-27T08:46:19.219Z,1.80
2023-01-27T08:47:20.951Z,1.80
2023-01-27T08:48:22.805Z,1.80
2023-01-27T08:49:24.812Z,1.80
2023-01-27T08:50:26.756Z,1.80
2023-01-27T08:51:29.053Z,1.80
2023-01-27T08:52:31.020Z,1.80
2023-01-27T08:53:33.366Z,1.80
2023-01-27T08:54:35.049Z,1.80
2023-01-27T08:55:36.852Z,1.80
2023-01-27T08:56:38.716Z,1.80
2023-01-27T08:57:40.423Z,1.80
2023-01-27T08:58:42.568Z,1.80
2023-01-27T08:59:46.164Z,1.80
2023-01-27T09:00:48.281Z,1.80
2023-01-27T09:01:50.167Z,1.80
2023-01-27T09:02:52.109Z,1.70
2023-01-27T09:03:53.899Z,1.80
2023-01-27T09:04:55.800Z,1.80
2023-01-27T09:05:58.032Z,1.80
2023-01-27T09:06:59.888Z,1.80
2023-01-27T09:08:01.571Z,1.80
2023-01-27T09:09:11.514Z,1.80
2023-01-27T09:10:15.973Z,1.80
2023-01-27T09:11:17.798Z,1.80
2023-01-27T09:12:19.536Z,1.80
2023-01-27T09:13:24.322Z,1.80
2023-01-27T09:14:26.133Z,1.80
2023-01-27T09:15:27.878Z,1.80
2023-01-27T09:16:29.781Z,1.80
2023-01-27T09:17:31.517Z,1.90
2023-01-27T09:18:33.495Z,1.80
2023-01-27T09:19:35.575Z,1.80
2023-01-27T09:20:37.580Z,1.90
2023-01-27T09:21:39.233Z,1.90
2023-01-27T09:22:41.294Z,1.90
2023-01-27T09:23:42.951Z,2.00
2023-01-27T09:24:44.726Z,2.00
2023-01-27T09:25:46.550Z,2.00
2023-01-27T09:26:48.596Z,2.00
2023-01-27T09:27:54.136Z,2.00
2023-01-27T09:28:56.211Z,2.00
2023-01-27T09:29:57.910Z,1.90
2023-01-27T09:30:59.845Z,2.00
2023-01-27T09:32:01.655Z,2.00
2023-01-27T09:33:03.542Z,2.00
2023-01-27T09:34:05.306Z,2.00
2023-01-27T09:35:07.558Z,2.10
2023-01-27T09:36:15.982Z,2.10
2023-01-27T09:37:19.155Z,2.10
2023-01-27T09:38:22.259Z,2.10
2023-01-27T09:39:24.469Z,2.10
2023-01-27T09:40:26.101Z,2.10
2023-01-27T09:41:33.583Z,2.20
2023-01-27T09:42:35.463Z,2.20
2023-01-27T09:43:47.519Z,2.30
2023-01-27T09:44:55.027Z,2.30
2023-01-27T09:46:08.996Z,2.30
2023-01-27T09:47:16.574Z,2.30
2023-01-27T09:48:41.516Z,2.30
2023-01-27T09:49:55.477Z,2.30
2023-01-27T09:51:11.033Z,2.30
2023-01-27T09:52:26.245Z,2.20
2023-01-27T09:53:36.946Z,2.20
2023-01-27T09:55:02.092Z,2.30
2023-01-27T09:56:27.624Z,2.30
2023-01-27T09:57:38.999Z,2.20
2023-01-27T09:58:40.679Z,2.20
2023-01-27T10:00:01.193Z,2.10
2023-01-27T10:01:14.181Z,2.10
2023-01-27T10:02:34.317Z,2.20
2023-01-27T10:03:54.439Z,2.10
2023-01-27T10:04:56.417Z,2.10
2023-01-27T10:06:20.069Z,2.10
2023-01-27T10:07:30.776Z,2.10
2023-01-27T10:08:41.417Z,2.10
2023-01-27T10:09:49.304Z,2.10
2023-01-27T10:10:53.864Z,2.10
2023-01-27T10:11:55.651Z,2.10
2023-01-27T10:12:57.346Z,2.10
2023-01-27T10:14:01.968Z,2.10
2023-01-27T10:15:19.775Z,2.10
2023-01-27T10:16:41.879Z,2.10
2023-01-27T10:17:49.701Z,2.20
2023-01-27T10:19:01.528Z,2.10
2023-01-27T10:20:14.897Z,2.10
2023-01-27T10:21:38.989Z,2.10
2023-01-27T10:22:49.984Z,2.00
2023-01-27T10:23:52.007Z,2.00
2023-01-27T10:25:29.407Z,2.00
2023-01-27T10:26:41.816Z,2.10
2023-01-27T10:27:53.466Z,2.10
2023-01-27T10:29:04.483Z,2.10
2023-01-27T10:30:08.953Z,2.10
2023-01-27T10:31:33.968Z,2.10
2023-01-27T10:32:46.259Z,2.20
2023-01-27T10:33:52.250Z,2.10
2023-01-27T10:35:07.770Z,2.10
2023-01-27T10:36:18.608Z,2.10
2023-01-27T10:37:32.901Z,2.00
2023-01-27T10:38:34.530Z,2.00
2023-01-27T10:39:44.315Z,2.00
2023-01-27T10:40:48.922Z,2.00
2023-01-27T10:41:58.415Z,2.00
2023-01-27T10:43:15.644Z,2.10
2023-01-27T10:44:36.097Z,2.20
2023-01-27T10:45:41.012Z,2.20
2023-01-27T10:46:51.609Z,2.30
2023-01-27T10:48:04.990Z,2.30
2023-01-27T10:49:10.404Z,2.30
2023-01-27T10:50:16.923Z,2.40
2023-01-27T10:51:19.788Z,2.40
2023-01-27T10:52:27.848Z,2.50
2023-01-27T10:53:53.713Z,2.60
2023-01-27T10:55:06.011Z,2.60
2023-01-27T10:56:27.981Z,2.70
2023-01-27T10:57:47.127Z,2.70
2023-01-27T10:58:53.114Z,2.60
2023-01-27T11:00:34.050Z,2.60
2023-01-27T11:01:36.534Z,2.60
2023-01-27T11:02:58.284Z,2.60
2023-01-27T11:04:06.150Z,2.50
2023-01-27T11:05:16.047Z,2.40
2023-01-27T11:06:20.286Z,2.30
2023-01-27T11:07:22.802Z,2.30
2023-01-27T11:08:30.642Z,2.20
2023-01-27T11:09:37.284Z,2.20
2023-01-27T11:11:01.145Z,2.10
2023-01-27T11:12:05.181Z,2.10
2023-01-27T11:13:07.048Z,2.10
2023-01-27T11:14:14.899Z,2.10
2023-01-27T11:15:35.341Z,2.10
2023-01-27T11:16:38.622Z,2.20
2023-01-27T11:17:46.775Z,2.10
2023-01-27T11:18:55.192Z,2.20
2023-01-27T11:20:05.684Z,2.20
2023-01-27T11:21:10.410Z,2.20
2023-01-27T11:22:23.280Z,2.20
2023-01-27T11:23:29.446Z,2.20
2023-01-27T11:24:40.814Z,2.20
2023-01-27T11:25:42.465Z,2.30
2023-01-27T11:26:46.547Z,2.30
2023-01-27T11:28:00.974Z,2.30
2023-01-27T11:29:05.844Z,2.30
2023-01-27T11:30:18.283Z,2.40
2023-01-27T11:31:20.154Z,2.30
2023-01-27T11:32:29.985Z,2.30
2023-01-27T11:33:38.472Z,2.30
2023-01-27T11:34:43.479Z,2.30
2023-01-27T11:35:45.483Z,2.30
2023-01-27T11:36:49.846Z,2.40
2023-01-27T11:38:00.615Z,2.40
2023-01-27T11:39:07.062Z,2.40
2023-01-27T11:40:18.278Z,2.40
2023-01-27T11:41:20.160Z,2.30
2023-01-27T11:42:23.006Z,2.30
2023-01-27T11:43:25.858Z,2.20
2023-01-27T11:44:34.622Z,2.30
2023-01-27T11:45:37.658Z,2.30
2023-01-27T11:46:39.716Z,2.30
2023-01-27T11:47:42.044Z,2.30
2023-01-27T11:48:45.131Z,2.40
2023-01-27T11:49:48.649Z,2.30
2023-01-27T11:50:50.950Z,2.30
2023-01-27T11:51:53.220Z,2.40
2023-01-27T11:53:14.015Z,2.50
2023-01-27T11:54:18.221Z,2.50
2023-01-27T11:55:20.050Z,2.50
2023-01-27T11:56:22.309Z,2.40
2023-01-27T11:57:24.800Z,2.30
2023-01-27T11:58:46.820Z,2.30
2023-01-27T11:59:50.462Z,2.20
2023-01-27T12:00:56.696Z,2.20
2023-01-27T12:02:07.673Z,2.20
2023-01-27T12:03:19.894Z,2.10
2023-01-27T12:04:33.853Z,2.20
2023-01-27T12:05:37.221Z,2.20
2023-01-27T12:06:47.474Z,2.20
2023-01-27T12:07:52.339Z,2.20
2023-01-27T12:08:53.997Z,2.20
2023-01-27T12:09:55.781Z,2.30
2023-01-27T12:11:16.113Z,2.40
2023-01-27T12:12:25.036Z,2.80
2023-01-27T12:13:26.805Z,3.30
2023-01-27T12:14:28.513Z,3.60
2023-01-27T12:15:31.247Z,3.90
2023-01-27T12:16:45.656Z,4.00
2023-01-27T12:17:50.283Z,3.90
2023-01-27T12:19:15.341Z,3.80
2023-01-27T12:20:35.721Z,3.90
2023-01-27T12:21:40.147Z,4.00
2023-01-27T12:22:44.900Z,4.00
2023-01-27T12:23:48.519Z,3.90
2023-01-27T12:24:52.685Z,3.70
2023-01-27T12:26:01.514Z,3.50
2023-01-27T12:27:04.303Z,3.40
2023-01-27T12:28:06.022Z,3.40
2023-01-27T12:29:16.652Z,3.40
2023-01-27T12:30:22.435Z,3.30
2023-01-27T12:31:31.522Z,3.10
2023-01-27T12:32:33.376Z,3.00
2023-01-27T12:33:36.782Z,2.80
2023-01-27T12:34:38.964Z,2.80
2023-01-27T12:35:40.622Z,2.70
2023-01-27T12:36:43.255Z,2.60
2023-01-27T12:37:45.305Z,2.70
2023-01-27T12:38:51.804Z,3.00
2023-01-27T12:40:00.553Z,3.10
2023-01-27T12:41:04.805Z,3.00
2023-01-27T12:42:06.868Z,2.90
2023-01-27T12:43:13.414Z,2.70
2023-01-27T12:44:19.526Z,2.60
2023-01-27T12:45:31.455Z,2.60
2023-01-27T12:46:36.366Z,2.90
2023-01-27T12:47:38.075Z,3.40
2023-01-27T12:48:50.490Z,3.90
2023-01-27T12:49:52.222Z,4.20
2023-01-27T12:50:55.722Z,4.50
2023-01-27T12:52:01.269Z,4.30
2023-01-27T12:53:09.786Z,4.50
2023-01-27T12:54:17.870Z,4.40
2023-01-27T12:55:29.955Z,4.20
2023-01-27T12:56:33.960Z,3.90
2023-01-27T12:57:36.149Z,3.70
2023-01-27T12:58:44.805Z,3.50
2023-01-27T12:59:54.615Z,3.60
2023-01-27T13:00:57.803Z,3.70
2023-01-27T13:02:09.858Z,3.70
2023-01-27T13:03:11.774Z,3.60
2023-01-27T13:04:21.056Z,3.40
2023-01-27T13:05:22.715Z,3.20
2023-01-27T13:06:31.123Z,3.10
2023-01-27T13:07:53.029Z,3.00
2023-01-27T13:08:54.905Z,3.00
2023-01-27T13:10:12.530Z,2.80
2023-01-27T13:11:14.636Z,2.80
2023-01-27T13:12:20.424Z,2.70
2023-01-27T13:13:26.160Z,2.70
2023-01-27T13:14:29.376Z,2.60
2023-01-27T13:15:31.563Z,2.50
2023-01-27T13:16:33.365Z,2.50
2023-01-27T13:17:45.707Z,2.50
2023-01-27T13:18:52.992Z,2.40
2023-01-27T13:19:57.121Z,2.30
2023-01-27T13:21:01.530Z,2.20
2023-01-27T13:22:04.053Z,2.10
2023-01-27T13:23:19.460Z,2.10
2023-01-27T13:24:27.435Z,2.10
2023-01-27T13:25:35.165Z,2.00
2023-01-27T13:26:37.655Z,2.00
2023-01-27T13:27:40.751Z,2.00
2023-01-27T13:29:01.276Z,2.10
2023-01-27T13:30:23.179Z,2.00
2023-01-27T13:31:48.288Z,2.10
2023-01-27T13:32:52.173Z,2.00
2023-01-27T13:34:13.735Z,1.90
2023-01-27T13:35:19.592Z,1.90
2023-01-27T13:36:29.485Z,1.90
2023-01-27T13:37:40.719Z,1.90
2023-01-27T13:38:55.555Z,1.90
2023-01-27T13:40:02.994Z,1.80
2023-01-27T13:41:08.072Z,1.80
2023-01-27T13:42:16.834Z,1.80
2023-01-27T13:43:24.215Z,1.80
2023-01-27T13:44:28.745Z,1.80
2023-01-27T13:45:41.789Z,1.80
2023-01-27T13:46:44.847Z,1.70
2023-01-27T13:47:46.565Z,1.70
2023-01-27T13:48:55.668Z,1.70
2023-01-27T13:50:03.118Z,1.70
2023-01-27T13:51:08.062Z,1.70
2023-01-27T13:52:11.256Z,1.70
2023-01-27T13:53:14.995Z,1.70
2023-01-27T13:54:16.740Z,1.70
2023-01-27T13:55:21.613Z,1.70
2023-01-27T13:56:32.298Z,1.70
2023-01-27T13:58:06.548Z,1.70
2023-01-27T13:59:24.096Z,1.70
2023-01-27T14:00:32.433Z,1.70
2023-01-27T14:01:55.803Z,1.70
2023-01-27T14:02:57.587Z,1.70
2023-01-27T14:04:10.973Z,1.60
2023-01-27T14:05:15.863Z,1.60
2023-01-27T14:06:40.665Z,1.60
2023-01-27T14:07:57.792Z,1.60
2023-01-27T14:09:11.064Z,1.60
2023-01-27T14:10:21.783Z,1.60
2023-01-27T14:11:32.272Z,1.60
2023-01-27T14:12:45.931Z,1.60
2023-01-27T14:13:47.696Z,1.50
2023-01-27T14:15:01.416Z,1.50
2023-01-27T14:16:21.646Z,1.50
2023-01-27T14:17:29.061Z,1.50
2023-01-27T14:18:30.869Z,1.50
2023-01-27T14:19:42.231Z,1.50
2023-01-27T14:20:49.987Z,1.50
2023-01-27T14:22:14.661Z,1.50
2023-01-27T14:23:22.555Z,1.40
2023-01-27T14:24:30.713Z,1.40
2023-01-27T14:25:51.138Z,1.40
2023-01-27T14:26:55.225Z,1.50
2023-01-27T14:28:02.167Z,1.50
2023-01-27T14:29:22.596Z,1.50